< < Back
Terminal Aerodrome Forecast


Current Version              Previous Versions:   1  2  3  4  5  6  7  8  9  

Terminal Aerodrome Forecast

031
FTUS42 KTAE 011100
TAFVLD
TAF
KVLD 011127Z 0112/0212 VRB05KT P6SM SCT050 BKN250=

Latest METAR

749
SAUS70 KWBC 011400 RRL
MTRVLD
METAR KVLD 011353Z 00000KT 10SM FEW065 28/21 A2999 RMK AO2 SLP161
T02830211


USA.gov is the U.S. government's official web portal to all federal, state and local government web resources and services.